Belshaw, Indiana
Current Conditions -  °F | °C
As of 6:15 PM on Friday 24 Oct 2014 (Local Time) from KIGQ Reporting Station
Clear Clear  
Wind Chill: 58°   Ceiling: Unl
Heat Index: 58°   Visibility: 10mi
Dew Point: 47°   Wind: 0mph
Humidity: 65%   Direction: NA
Pressure: 29.96"   Gusts: NA
Location:  41.2585°N, 87.4193°W
Report Text: KIGQ 242315Z AUTO 00000KT 10SM CLR 15/08 A2996 RMK AO2 T01460081
Loading
Personal Weather Stations






























Interactive Weather Map
Tropical Storm Tracking
New forecast layout! Learn more

10-Day Weather Forecast

Advertisements
Track Severe Weather on mobile